Time;durP1;ratioP1;P1;durP2;ratioP2;P2;SDS_P1;SDS_P2;PMS_P1;PMS_P2;Temp;Humidity;BMP_temperature;BMP_pressure;BME280_temperature;BME280_humidity;BME280_pressure;Samples;Min_cycle;Max_cycle;Signal;HPM_P1;HPM_P2
2022/10/02 00:00:15;;;;;;;2.63;2.03;;;18.10;65.90;19.10;100679.00;;;;4970435;28;20297;-46
2022/10/02 00:02:54;;;;;;;3.27;2.30;;;18.10;65.90;19.10;100674.00;;;;4971589;28;20601;-45
2022/10/02 00:05:37;;;;;;;4.13;2.67;;;18.10;65.90;19.10;100668.00;;;;4969974;28;20240;-46
2022/10/02 00:08:24;;;;;;;2.93;2.10;;;18.10;66.00;19.10;100681.00;;;;4970548;28;20236;-45
2022/10/02 00:11:10;;;;;;;2.60;2.40;;;18.10;65.90;19.10;100674.00;;;;4970341;28;20757;-45
2022/10/02 00:13:45;;;;;;;2.63;2.17;;;18.00;65.90;19.00;100688.00;;;;4969990;28;20180;-45
2022/10/02 00:16:20;;;;;;;3.03;2.20;;;18.00;65.90;19.00;100671.00;;;;4971493;28;20200;-46
2022/10/02 00:18:45;;;;;;;2.57;2.10;;;18.00;66.00;19.00;100676.00;;;;4970148;28;20188;-48
2022/10/02 00:21:27;;;;;;;2.40;2.20;;;18.00;66.00;19.00;100677.00;;;;4970010;28;20181;-46
2022/10/02 00:24:00;;;;;;;2.40;2.20;;;18.00;65.90;19.00;100688.00;;;;4969857;28;20201;-46
2022/10/02 00:26:41;;;;;;;2.20;2.00;;;18.00;65.90;19.00;100681.00;;;;4954022;28;20192;-44
2022/10/02 00:29:32;;;;;;;2.97;2.00;;;18.00;65.90;19.00;100682.00;;;;4970483;28;20259;-45
2022/10/02 00:32:23;;;;;;;2.60;2.00;;;18.00;66.00;19.00;100682.00;;;;4970166;28;20180;-46
2022/10/02 00:35:11;;;;;;;3.00;2.33;;;17.90;65.90;19.00;100684.00;;;;4970614;28;20248;-46
2022/10/02 00:38:15;;;;;;;2.20;2.00;;;17.90;66.00;19.00;100683.00;;;;4969799;28;20653;-46
2022/10/02 00:41:15;;;;;;;2.50;1.80;;;17.90;65.90;19.00;100687.00;;;;4966590;28;20193;-45
2022/10/02 00:44:10;;;;;;;2.37;2.00;;;17.90;66.00;18.90;100693.00;;;;4970530;28;20283;-47
2022/10/02 00:47:36;;;;;;;2.43;2.13;;;17.90;66.00;18.90;100699.00;;;;4971435;28;20203;-46
2022/10/02 00:50:34;;;;;;;3.13;2.10;;;17.90;66.00;18.90;100697.00;;;;4948198;28;20670;-45
2022/10/02 00:53:26;;;;;;;2.50;2.20;;;17.90;66.00;18.90;100703.00;;;;4969686;28;20177;-45
2022/10/02 00:56:13;;;;;;;2.40;2.20;;;17.90;66.00;18.90;100700.00;;;;4943554;28;20553;-46
2022/10/02 00:58:57;;;;;;;2.50;1.93;;;17.90;66.20;18.90;100709.00;;;;4970822;28;20745;-45
2022/10/02 01:01:40;;;;;;;2.60;2.00;;;17.90;66.30;18.90;100701.00;;;;4970707;28;20176;-47
2022/10/02 01:04:12;;;;;;;3.03;2.23;;;17.90;66.20;18.90;100708.00;;;;4954963;28;20209;-46
2022/10/02 01:06:38;;;;;;;2.83;2.27;;;17.90;66.30;18.90;100704.00;;;;4969552;28;20278;-46
2022/10/02 01:09:04;;;;;;;3.10;2.10;;;17.80;66.20;18.90;100709.00;;;;4970540;28;20593;-45
2022/10/02 01:11:30;;;;;;;2.63;2.10;;;17.90;66.30;18.90;100701.00;;;;4970360;28;20214;-45
2022/10/02 01:13:56;;;;;;;3.40;2.40;;;17.80;66.20;18.90;100694.00;;;;4969008;28;20177;-46
2022/10/02 01:16:21;;;;;;;2.53;2.20;;;17.80;66.20;18.90;100714.00;;;;4970288;28;20312;-45
2022/10/02 01:18:47;;;;;;;2.00;1.80;;;17.80;66.20;18.90;100712.00;;;;4970168;28;20215;-46
2022/10/02 01:21:35;;;;;;;2.63;2.20;;;17.80;66.30;18.90;100716.00;;;;4970055;28;20196;-46
2022/10/02 01:24:31;;;;;;;2.53;2.10;;;17.80;66.40;18.90;100716.00;;;;4968664;28;20206;-45
2022/10/02 01:26:57;;;;;;;2.20;2.00;;;17.80;66.40;18.80;100638.00;;;;4968830;28;20177;-46
2022/10/02 01:29:23;;;;;;;2.27;1.90;;;17.80;66.40;18.80;100710.00;;;;4968773;28;20643;-46
2022/10/02 01:31:48;;;;;;;2.53;2.10;;;17.80;66.40;18.80;100716.00;;;;4970823;28;20597;-47
2022/10/02 01:34:14;;;;;;;2.20;2.00;;;17.80;66.40;18.80;100716.00;;;;4970540;28;20690;-47
2022/10/02 01:36:40;;;;;;;2.80;1.90;;;17.80;66.40;18.80;100723.00;;;;4968557;28;20188;-45
2022/10/02 01:39:06;;;;;;;2.63;2.00;;;17.80;66.40;18.80;100688.00;;;;4970092;28;20187;-46
2022/10/02 01:41:34;;;;;;;2.53;2.00;;;17.80;66.40;18.80;100703.00;;;;4968868;28;20692;-46
2022/10/02 01:44:00;;;;;;;2.33;2.13;;;17.80;66.50;18.80;100710.00;;;;4968484;28;20201;-45
2022/10/02 01:46:47;;;;;;;2.10;1.90;;;17.80;66.50;18.80;100716.00;;;;4967998;28;20279;-48
2022/10/02 01:49:36;;;;;;;3.07;2.00;;;17.80;66.60;18.80;100724.00;;;;4970048;28;20179;-46
2022/10/02 01:52:21;;;;;;;2.13;1.93;;;17.80;66.50;18.80;100726.00;;;;4955285;28;20224;-47
2022/10/02 01:55:10;;;;;;;2.20;2.00;;;17.80;66.60;18.80;100722.00;;;;4968343;28;20173;-46
2022/10/02 01:57:52;;;;;;;2.50;2.00;;;17.80;66.60;18.80;100722.00;;;;4968422;28;20194;-46
2022/10/02 02:00:23;;;;;;;2.60;2.03;;;17.80;66.50;18.80;100723.00;;;;4968336;28;20175;-46
2022/10/02 02:03:27;;;;;;;2.13;1.90;;;17.70;66.50;18.80;100727.00;;;;4968066;28;20611;-47
2022/10/02 02:06:07;;;;;;;2.20;2.00;;;17.70;66.60;18.80;100718.00;;;;4968238;28;20246;-45
2022/10/02 02:08:59;;;;;;;2.47;1.90;;;17.70;66.60;18.70;100711.00;;;;4969657;28;20728;-44
2022/10/02 02:11:24;;;;;;;2.57;2.00;;;17.70;66.60;18.70;100722.00;;;;4969345;28;20161;-45
2022/10/02 02:14:00;;;;;;;2.20;2.00;;;17.70;66.60;18.70;100715.00;;;;4968260;28;20181;-46
2022/10/02 02:16:42;;;;;;;1.97;1.80;;;17.70;66.60;18.70;100705.00;;;;4968928;28;20237;-45
2022/10/02 02:19:16;;;;;;;2.33;2.00;;;17.70;66.80;18.80;100721.00;;;;4968310;28;20219;-47
2022/10/02 02:21:58;;;;;;;1.87;1.70;;;17.70;66.70;18.70;100714.00;;;;4968745;28;20636;-45
2022/10/02 02:24:31;;;;;;;2.13;1.93;;;17.70;66.70;18.70;100702.00;;;;4968917;28;20200;-45
2022/10/02 02:26:59;;;;;;;2.20;1.87;;;17.70;66.60;18.70;100714.00;;;;4952868;28;20199;-46
2022/10/02 02:29:27;;;;;;;1.90;1.80;;;17.70;66.70;18.70;100711.00;;;;4968455;28;20256;-45
2022/10/02 02:31:55;;;;;;;2.03;1.83;;;17.70;66.70;18.70;100700.00;;;;4968129;28;20172;-45
2022/10/02 02:34:24;;;;;;;2.33;1.90;;;17.70;66.70;18.70;100710.00;;;;4968129;28;20185;-46
2022/10/02 02:36:54;;;;;;;1.93;1.83;;;17.60;66.70;18.70;100707.00;;;;4952785;28;20233;-48
2022/10/02 02:39:52;;;;;;;2.07;1.87;;;17.60;66.80;18.70;100699.00;;;;4952808;28;20176;-47
2022/10/02 02:42:21;;;;;;;2.20;1.83;;;17.70;66.80;18.70;100701.00;;;;4968264;28;20184;-45
2022/10/02 02:45:18;;;;;;;2.30;2.00;;;17.70;66.80;18.70;100708.00;;;;4952047;28;20743;-45
2022/10/02 02:47:55;;;;;;;1.73;1.63;;;17.70;66.90;18.70;100703.00;;;;4967271;28;20662;-45
2022/10/02 02:50:29;;;;;;;2.23;1.90;;;17.70;67.00;18.70;100699.00;;;;4967976;28;20186;-47
2022/10/02 02:53:01;;;;;;;2.10;1.80;;;17.70;66.90;18.70;100709.00;;;;4969059;28;20232;-46
2022/10/02 02:55:54;;;;;;;1.90;1.80;;;17.60;66.80;18.70;100721.00;;;;4967725;28;20196;-44
2022/10/02 02:58:27;;;;;;;2.07;1.87;;;17.60;66.90;18.60;100722.00;;;;4966044;28;20665;-46
2022/10/02 03:00:52;;;;;;;1.83;1.70;;;17.60;66.80;18.60;100725.00;;;;4952234;29;20230;-45
2022/10/02 03:03:18;;;;;;;2.00;1.80;;;17.60;66.80;18.70;100718.00;;;;4951741;29;20218;-46
2022/10/02 03:05:50;;;;;;;2.93;2.00;;;17.60;66.80;18.60;100737.00;;;;4951865;29;20701;-45
2022/10/02 03:08:25;;;;;;;1.80;1.70;;;17.60;66.80;18.60;100719.00;;;;4936217;29;20829;-46
2022/10/02 03:11:35;;;;;;;2.60;1.87;;;17.60;66.80;18.60;100710.00;;;;4936456;29;20633;-46
2022/10/02 03:14:24;;;;;;;2.13;1.83;;;17.60;66.80;18.60;100719.00;;;;4952048;29;20715;-46
2022/10/02 03:17:26;;;;;;;1.80;1.70;;;17.60;66.80;18.60;100717.00;;;;4952048;29;20808;-46
2022/10/02 03:20:41;;;;;;;1.90;1.80;;;17.60;66.80;18.30;100714.00;;;;4952092;29;20184;-45
2022/10/02 03:23:34;;;;;;;2.20;1.87;;;17.60;66.80;18.60;100710.00;;;;4952502;29;20175;-45
2022/10/02 03:26:07;;;;;;;2.00;1.80;;;17.60;66.80;18.60;100704.00;;;;4951994;29;20930;-47
2022/10/02 03:28:46;;;;;;;2.57;2.10;;;17.60;66.90;18.60;100706.00;;;;4921264;29;20165;-47
2022/10/02 03:31:11;;;;;;;3.53;2.10;;;17.60;66.90;18.60;100706.00;;;;4936210;29;20173;-45
2022/10/02 03:33:37;;;;;;;3.33;1.80;;;17.60;67.00;18.60;100699.00;;;;4935669;29;20202;-47
2022/10/02 03:36:03;;;;;;;3.67;1.90;;;17.60;67.00;18.60;100699.00;;;;4935910;29;20298;-46
2022/10/02 03:38:29;;;;;;;6.97;2.10;;;17.60;67.20;18.60;100696.00;;;;4935770;29;20653;-45
2022/10/02 03:40:57;;;;;;;5.30;1.80;;;17.60;67.30;18.60;100624.00;;;;4953015;29;20181;-44
2022/10/02 03:43:24;;;;;;;3.57;1.90;;;17.60;66.90;18.60;100697.00;;;;4952864;29;20178;-45
2022/10/02 03:45:50;;;;;;;3.07;2.20;;;17.60;66.80;18.60;100691.00;;;;4935761;29;20559;-44
2022/10/02 03:48:16;;;;;;;5.17;2.00;;;17.60;66.80;18.60;100698.00;;;;4952768;29;20195;-45
2022/10/02 03:50:43;;;;;;;9.87;2.27;;;17.70;66.90;18.60;100687.00;;;;4952458;28;20166;-44
2022/10/02 03:53:18;;;;;;;4.77;2.20;;;17.60;66.90;18.60;100698.00;;;;4952323;29;20197;-45
2022/10/02 03:55:57;;;;;;;6.23;2.00;;;17.60;66.90;18.60;100711.00;;;;4951289;29;20285;-45
2022/10/02 03:58:23;;;;;;;4.30;2.10;;;17.60;66.90;18.60;100705.00;;;;4936399;29;20623;-45
2022/10/02 04:00:57;;;;;;;5.10;2.20;;;17.60;66.90;18.60;100714.00;;;;4935191;29;20185;-44
2022/10/02 04:03:47;;;;;;;6.27;2.30;;;17.50;66.80;18.60;100729.00;;;;4951175;29;20456;-44
2022/10/02 04:06:19;;;;;;;2.13;1.80;;;17.60;66.90;18.60;100717.00;;;;4951346;29;20293;-45
2022/10/02 04:08:57;;;;;;;3.07;2.17;;;17.50;66.80;18.60;100712.00;;;;4935566;29;20667;-44
2022/10/02 04:11:35;;;;;;;5.57;2.20;;;17.50;66.80;18.60;100698.00;;;;4935335;29;20322;-45
2022/10/02 04:14:26;;;;;;;4.07;2.03;;;17.50;66.80;18.60;100710.00;;;;4934771;29;20207;-44
2022/10/02 04:17:08;;;;;;;6.37;2.27;;;17.50;66.70;18.60;100711.00;;;;4951046;29;20259;-48
2022/10/02 04:19:48;;;;;;;3.07;2.10;;;17.50;66.70;18.60;100712.00;;;;4935936;29;20289;-45
2022/10/02 04:22:44;;;;;;;2.43;1.90;;;17.50;66.70;18.60;100710.00;;;;4950739;29;20184;-46
2022/10/02 04:25:24;;;;;;;4.73;2.30;;;17.50;66.80;18.60;100706.00;;;;4951639;29;20200;-45
2022/10/02 04:28:11;;;;;;;4.30;2.30;;;17.50;66.70;18.60;100692.00;;;;4921149;29;20253;-43
2022/10/02 04:30:36;;;;;;;3.73;2.50;;;17.50;66.70;18.60;100717.00;;;;4921457;29;20196;-46
2022/10/02 04:33:17;;;;;;;4.87;2.07;;;17.50;66.80;18.60;100711.00;;;;4951531;29;20212;-45
2022/10/02 04:35:57;;;;;;;6.33;2.60;;;17.50;66.90;18.60;100719.00;;;;4935872;29;20262;-46
2022/10/02 04:38:55;;;;;;;3.30;2.27;;;17.50;67.40;18.60;100730.00;;;;4951781;29;20177;-45
2022/10/02 04:42:04;;;;;;;2.60;2.10;;;17.50;67.60;18.60;100727.00;;;;4951925;29;20168;-45
2022/10/02 04:45:04;;;;;;;4.87;2.23;;;17.50;67.70;18.50;100734.00;;;;4935911;29;20635;-47
2022/10/02 04:47:55;;;;;;;5.23;2.40;;;17.50;67.80;18.50;100716.00;;;;4938729;29;20839;-45
2022/10/02 04:50:53;;;;;;;6.70;2.60;;;17.50;67.80;18.50;100722.00;;;;4952790;29;20691;-47
2022/10/02 04:54:03;;;;;;;5.10;2.57;;;17.50;67.80;18.50;100731.00;;;;4935299;29;20169;-46
2022/10/02 04:56:51;;;;;;;16.80;2.97;;;17.50;67.80;18.50;100732.00;;;;4930238;28;20228;-47
2022/10/02 04:59:35;;;;;;;9.77;3.27;;;17.50;68.00;18.50;100730.00;;;;4972950;28;20184;-46
2022/10/02 05:02:24;;;;;;;9.47;2.93;;;17.50;68.00;18.50;100725.00;;;;4970999;28;20215;-46
2022/10/02 05:05:11;;;;;;;14.23;3.43;;;17.50;68.90;18.50;100718.00;;;;4948777;28;20587;-44
2022/10/02 05:08:17;;;;;;;18.20;3.40;;;17.50;68.10;18.50;100724.00;;;;4969470;28;20158;-46
2022/10/02 05:11:27;;;;;;;14.10;3.50;;;17.50;68.20;18.50;100725.00;;;;4969597;28;20249;-44
2022/10/02 05:14:28;;;;;;;10.93;3.30;;;17.40;68.20;18.50;100713.00;;;;4970648;28;20750;-45
2022/10/02 05:17:18;;;;;;;11.73;3.27;;;17.50;68.40;18.50;100720.00;;;;4970042;28;20192;-44
2022/10/02 05:20:21;;;;;;;14.97;3.53;;;17.50;68.50;18.50;100731.00;;;;4970369;28;20168;-46
2022/10/02 05:22:56;;;;;;;14.37;3.30;;;17.50;68.40;18.50;100732.00;;;;4970686;28;20187;-45
2022/10/02 05:25:56;;;;;;;9.90;3.13;;;17.50;68.50;18.50;100738.00;;;;4970066;28;20709;-45
2022/10/02 05:28:39;;;;;;;6.73;3.00;;;17.50;68.50;18.50;100749.00;;;;4969029;28;20184;-45
2022/10/02 05:31:39;;;;;;;8.97;3.10;;;17.50;68.50;18.50;100736.00;;;;4970524;28;20164;-47
2022/10/02 05:34:12;;;;;;;11.43;3.10;;;17.50;68.40;18.40;100738.00;;;;4969200;28;20264;-45
2022/10/02 05:37:25;;;;;;;11.43;2.97;;;17.40;68.40;18.40;100746.00;;;;4969695;28;20207;-45
2022/10/02 05:40:00;;;;;;;8.53;3.00;;;17.50;68.70;18.40;100731.00;;;;4913821;29;20175;-46
2022/10/02 05:42:35;;;;;;;9.33;3.30;;;17.50;68.50;18.40;100739.00;;;;4929675;29;20217;-46
2022/10/02 05:45:45;;;;;;;10.27;2.80;;;17.50;68.40;18.50;100744.00;;;;4955415;28;20220;-45
2022/10/02 05:48:24;;;;;;;7.43;2.93;;;17.50;68.40;18.50;100737.00;;;;4969001;28;20267;-44
2022/10/02 05:51:09;;;;;;;7.33;2.70;;;17.50;68.40;18.50;100736.00;;;;4969049;28;20191;-45
2022/10/02 05:53:39;;;;;;;8.67;2.73;;;17.50;68.20;18.50;100713.00;;;;4968868;28;20250;-44
2022/10/02 05:56:21;;;;;;;8.60;2.80;;;17.50;68.20;18.50;100733.00;;;;4968204;28;20190;-46
2022/10/02 05:58:59;;;;;;;8.77;3.10;;;17.40;68.20;18.50;100732.00;;;;4969025;28;20776;-46
2022/10/02 06:01:34;;;;;;;6.97;2.80;;;17.50;68.20;18.50;100738.00;;;;4968645;28;20187;-44
2022/10/02 06:04:05;;;;;;;7.53;2.80;;;17.50;68.20;18.50;100745.00;;;;4968044;28;20197;-46
2022/10/02 06:06:45;;;;;;;5.50;2.80;;;17.50;68.20;18.50;100743.00;;;;4968190;28;20185;-48
2022/10/02 06:09:30;;;;;;;3.50;2.27;;;17.40;68.90;18.50;100738.00;;;;4968747;28;20643;-46
2022/10/02 06:12:05;;;;;;;5.00;2.57;;;17.40;68.20;18.50;100753.00;;;;4968614;28;20509;-44
2022/10/02 06:14:38;;;;;;;5.23;2.50;;;17.40;68.10;18.50;100760.00;;;;4967949;28;20207;-46
2022/10/02 06:17:10;;;;;;;5.50;2.60;;;17.40;68.10;18.50;100752.00;;;;4967939;28;20273;-45
2022/10/02 06:20:00;;;;;;;5.03;2.70;;;17.40;68.10;18.50;100773.00;;;;4968551;28;20202;-46
2022/10/02 06:22:41;;;;;;;4.50;2.53;;;17.40;68.10;18.50;100782.00;;;;4968529;28;20264;-44
2022/10/02 06:25:18;;;;;;;4.03;2.60;;;17.40;68.00;18.50;100775.00;;;;4967622;28;20204;-43
2022/10/02 06:28:01;;;;;;;4.87;2.73;;;17.40;68.10;18.50;100786.00;;;;4968509;28;20169;-45
2022/10/02 06:30:28;;;;;;;4.33;2.40;;;17.40;68.10;18.50;100764.00;;;;4968743;28;20186;-44
2022/10/02 06:33:06;;;;;;;4.10;2.33;;;17.40;68.10;18.50;100724.00;;;;4954533;28;20189;-46
2022/10/02 06:36:07;;;;;;;4.53;2.30;;;17.40;68.10;18.50;100795.00;;;;4972889;28;20191;-48
2022/10/02 06:39:09;;;;;;;3.03;2.30;;;17.40;68.10;18.50;100800.00;;;;4972555;28;20656;-47
2022/10/02 06:42:05;;;;;;;5.90;2.67;;;17.40;68.10;18.50;100795.00;;;;4972412;28;20645;-45
2022/10/02 06:45:09;;;;;;;4.30;2.50;;;17.40;68.10;18.50;100803.00;;;;4971854;28;20196;-45
2022/10/02 06:48:21;;;;;;;5.70;2.40;;;17.40;68.10;18.50;100797.00;;;;4972363;28;20161;-46
2022/10/02 06:51:02;;;;;;;4.33;2.43;;;17.40;68.20;18.40;100801.00;;;;4972635;28;20516;-44
2022/10/02 06:53:49;;;;;;;3.67;2.37;;;17.40;68.20;18.40;100803.00;;;;4971947;28;20894;-47
2022/10/02 06:56:37;;;;;;;4.20;2.40;;;17.40;68.20;18.50;100806.00;;;;4972048;28;20224;-44
2022/10/02 06:59:46;;;;;;;4.10;2.50;;;17.40;69.00;18.50;100779.00;;;;4972761;28;20227;-47
2022/10/02 07:03:15;;;;;;;3.77;2.50;;;17.40;68.10;18.40;100808.00;;;;4970333;28;20190;-45
2022/10/02 07:06:11;;;;;;;3.73;2.27;;;17.40;68.10;18.40;100813.00;;;;4952143;28;20224;-45
2022/10/02 07:09:25;;;;;;;4.47;2.33;;;17.40;68.10;18.40;100819.00;;;;4972438;28;20183;-45
2022/10/02 07:11:54;;;;;;;3.60;2.40;;;17.40;68.10;18.40;100821.00;;;;4971914;28;20166;-44
2022/10/02 07:14:54;;;;;;;3.90;2.37;;;17.40;68.20;18.40;100828.00;;;;4972743;28;20186;-45
2022/10/02 07:17:48;;;;;;;4.03;2.60;;;17.40;68.10;18.40;100831.00;;;;4971231;28;20180;-44
2022/10/02 07:20:36;;;;;;;2.90;2.00;;;17.40;68.10;18.40;100825.00;;;;4971529;28;20191;-45
2022/10/02 07:23:31;;;;;;;2.60;2.03;;;17.40;68.10;18.50;100819.00;;;;4972768;28;20167;-45
2022/10/02 07:26:20;;;;;;;4.83;2.60;;;17.40;68.20;18.50;100815.00;;;;4971036;28;20681;-45
2022/10/02 07:29:01;;;;;;;3.60;2.37;;;17.40;68.20;18.50;100824.00;;;;4971812;28;20153;-45
2022/10/02 07:32:13;;;;;;;3.33;2.17;;;17.40;68.10;18.50;100833.00;;;;4971403;28;20171;-45
2022/10/02 07:35:09;;;;;;;3.07;2.10;;;17.40;68.50;18.40;100843.00;;;;4972049;28;20168;-46
2022/10/02 07:38:11;;;;;;;3.47;2.43;;;17.40;68.40;18.50;100833.00;;;;4970246;28;20167;-45
2022/10/02 07:40:43;;;;;;;4.67;2.40;;;17.40;68.40;18.40;100846.00;;;;4970803;28;20240;-45
2022/10/02 07:43:42;;;;;;;4.97;2.30;;;17.40;68.40;18.50;100831.00;;;;4971235;28;20764;-45
2022/10/02 07:46:35;;;;;;;3.23;2.20;;;17.40;68.40;18.50;100846.00;;;;4972098;28;20261;-45
2022/10/02 07:49:29;;;;;;;3.60;2.20;;;17.30;68.30;18.50;100838.00;;;;4972921;28;20526;-46
2022/10/02 07:52:04;;;;;;;4.07;2.23;;;17.40;68.50;18.40;100822.00;;;;4972271;28;20164;-46
2022/10/02 07:54:42;;;;;;;3.50;2.20;;;17.40;68.60;18.40;100847.00;;;;4970058;28;20180;-46
2022/10/02 07:57:57;;;;;;;7.10;2.40;;;17.40;68.70;18.40;100837.00;;;;4970986;28;20215;-45
2022/10/02 08:00:23;;;;;;;3.67;2.37;;;17.40;68.80;18.40;100835.00;;;;4971044;28;20249;-46
2022/10/02 08:03:11;;;;;;;3.50;2.20;;;17.40;68.70;18.40;100848.00;;;;4971121;28;20263;-45
2022/10/02 08:05:41;;;;;;;2.67;2.00;;;17.40;68.80;18.40;100836.00;;;;4969886;28;20225;-46
2022/10/02 08:08:19;;;;;;;4.07;2.27;;;17.40;68.80;18.40;100829.00;;;;4954556;28;20202;-48
2022/10/02 08:10:48;;;;;;;3.23;2.20;;;17.40;68.80;18.40;100858.00;;;;4970431;28;20166;-46
2022/10/02 08:13:21;;;;;;;2.80;2.20;;;17.40;68.70;18.40;100839.00;;;;4970529;28;20264;-46
2022/10/02 08:15:51;;;;;;;5.53;2.27;;;17.30;68.70;18.50;100858.00;;;;4970152;28;20204;-45
2022/10/02 08:18:38;;;;;;;4.13;2.27;;;17.40;68.80;18.50;100865.00;;;;4969882;28;20180;-46
2022/10/02 08:21:18;;;;;;;3.03;1.93;;;17.30;68.70;18.50;100872.00;;;;4970478;28;20164;-45
2022/10/02 08:24:06;;;;;;;3.90;2.40;;;17.40;68.80;18.50;100863.00;;;;4970362;28;20720;-45
2022/10/02 08:26:59;;;;;;;2.67;2.10;;;17.40;68.80;18.20;100863.00;;;;4970121;28;20247;-44
2022/10/02 08:29:47;;;;;;;4.43;2.17;;;17.40;68.80;18.50;100865.00;;;;4954897;28;20175;-45
2022/10/02 08:32:13;;;;;;;3.17;2.10;;;17.40;68.60;18.50;100867.00;;;;4970386;28;20180;-43
2022/10/02 08:34:40;;;;;;;6.63;2.40;;;17.40;68.70;18.50;100872.00;;;;4970924;28;20687;-46
2022/10/02 08:37:12;;;;;;;2.80;2.10;;;17.40;68.70;18.50;100882.00;;;;4971222;28;20176;-45
2022/10/02 08:40:32;;;;;;;2.60;2.00;;;17.40;69.50;18.50;100880.00;;;;4970361;28;20702;-44
2022/10/02 08:43:12;;;;;;;3.07;2.27;;;17.40;68.60;18.50;100878.00;;;;4969223;28;20813;-46
2022/10/02 08:46:22;;;;;;;3.47;2.30;;;17.40;68.70;18.50;100880.00;;;;4970837;28;20252;-44
2022/10/02 08:49:42;;;;;;;3.00;2.17;;;17.40;68.60;18.50;100886.00;;;;4952044;28;20194;-46
2022/10/02 08:52:28;;;;;;;3.03;1.97;;;17.40;68.60;18.50;100886.00;;;;4934762;29;20364;-46
2022/10/02 08:55:24;;;;;;;2.27;2.07;;;17.40;68.60;18.40;100893.00;;;;4949300;28;20208;-45
2022/10/02 08:58:34;;;;;;;3.40;2.03;;;17.40;68.80;18.50;100881.00;;;;4951039;29;20197;-45
2022/10/02 09:01:34;;;;;;;2.83;2.00;;;17.40;68.60;18.40;100887.00;;;;4951510;29;20179;-46
2022/10/02 09:04:09;;;;;;;3.33;2.00;;;17.40;68.50;18.40;100899.00;;;;4949989;29;20275;-46
2022/10/02 09:06:57;;;;;;;2.43;1.90;;;17.40;68.60;18.40;100885.00;;;;4950852;29;20789;-46
2022/10/02 09:10:06;;;;;;;2.53;2.00;;;17.40;68.60;18.40;100885.00;;;;4950373;29;20589;-45
2022/10/02 09:12:47;;;;;;;2.30;1.90;;;17.40;68.60;18.40;100887.00;;;;4950385;29;20588;-46
2022/10/02 09:15:17;;;;;;;2.83;2.00;;;17.40;68.50;18.40;100899.00;;;;4950483;29;20246;-43
2022/10/02 09:18:17;;;;;;;3.10;2.10;;;17.40;68.60;18.50;100898.00;;;;4950898;28;20181;-45
2022/10/02 09:21:09;;;;;;;3.27;2.00;;;17.40;68.70;18.40;100902.00;;;;4926644;29;20198;-43
2022/10/02 09:24:20;;;;;;;2.90;2.00;;;17.40;68.70;18.40;100899.00;;;;4950083;29;20177;-44
2022/10/02 09:26:57;;;;;;;3.53;2.30;;;17.50;68.80;18.40;100900.00;;;;4949289;29;20392;-47
2022/10/02 09:29:50;;;;;;;2.27;1.80;;;17.50;68.70;18.50;100906.00;;;;4949353;29;20199;-44
2022/10/02 09:33:08;;;;;;;3.40;1.97;;;17.50;68.80;18.40;100911.00;;;;4951282;28;20169;-47
2022/10/02 09:36:05;;;;;;;2.80;2.00;;;17.50;68.80;18.50;100917.00;;;;4949622;29;20185;-46
2022/10/02 09:38:43;;;;;;;3.20;1.87;;;17.40;68.80;18.50;100911.00;;;;4952773;29;20170;-43
2022/10/02 09:41:43;;;;;;;3.00;2.10;;;17.50;69.10;18.50;100908.00;;;;4951856;29;20195;-45
2022/10/02 09:44:57;;;;;;;2.87;2.03;;;17.50;69.50;18.50;100908.00;;;;4951069;29;20611;-45
2022/10/02 09:47:47;;;;;;;3.10;2.20;;;17.50;69.70;18.50;100910.00;;;;4950209;29;20628;-46
2022/10/02 09:50:55;;;;;;;2.73;2.10;;;17.60;70.10;18.60;100904.00;;;;4951377;29;20174;-48
2022/10/02 09:53:45;;;;;;;4.07;2.00;;;17.60;70.20;18.60;100901.00;;;;4949826;29;20181;-48
2022/10/02 09:56:37;;;;;;;4.43;1.80;;;17.60;70.10;18.60;100918.00;;;;4950799;29;20584;-45
2022/10/02 09:59:33;;;;;;;3.00;2.10;;;17.60;70.00;18.60;100899.00;;;;4949857;29;20256;-47
2022/10/02 10:02:46;;;;;;;2.37;1.80;;;17.60;70.00;18.60;100890.00;;;;4950006;29;20189;-47
2022/10/02 10:05:44;;;;;;;4.27;2.07;;;17.60;69.90;18.40;100910.00;;;;4950588;28;20217;-46
2022/10/02 10:08:34;;;;;;;3.07;1.70;;;17.60;69.90;18.60;100903.00;;;;4949489;28;20256;-45
2022/10/02 10:11:29;;;;;;;3.07;1.70;;;17.70;70.30;18.60;100908.00;;;;4950797;29;20174;-45
2022/10/02 10:14:05;;;;;;;2.63;2.00;;;17.60;70.20;18.60;100915.00;;;;4952097;28;20177;-46
2022/10/02 10:17:13;;;;;;;2.30;2.00;;;17.70;70.30;18.60;100917.00;;;;4950062;29;20238;-46
2022/10/02 10:20:24;;;;;;;2.83;2.00;;;17.70;70.30;18.60;100918.00;;;;4936780;28;20552;-45
2022/10/02 10:23:11;;;;;;;4.83;2.00;;;17.70;70.10;18.60;100931.00;;;;4960462;28;20177;-46
2022/10/02 10:25:49;;;;;;;3.00;2.10;;;17.70;70.20;18.60;100933.00;;;;4960741;28;20208;-46
2022/10/02 10:28:54;;;;;;;5.43;1.80;;;17.70;70.30;18.60;100935.00;;;;4961423;28;20320;-46
2022/10/02 10:31:34;;;;;;;3.83;1.83;;;17.70;70.40;18.70;100938.00;;;;4950735;29;20204;-46
2022/10/02 10:34:27;;;;;;;2.57;1.83;;;17.70;70.30;18.70;100946.00;;;;4964523;28;20172;-45
2022/10/02 10:40:26;;;;;;;4.77;2.20;;;17.80;70.40;18.70;100940.00;;;;4944754;28;20207;-46
2022/10/02 10:43:10;;;;;;;4.57;1.80;;;17.80;70.50;18.70;100938.00;;;;4939108;28;20194;-47
2022/10/02 10:45:57;;;;;;;9.73;2.03;;;17.80;70.40;18.70;100940.00;;;;4950543;28;20205;-47
2022/10/02 10:49:05;;;;;;;8.67;2.20;;;17.80;70.50;18.80;100939.00;;;;4959247;28;20172;-46
2022/10/02 10:51:33;;;;;;;5.27;1.90;;;17.80;70.50;18.70;100951.00;;;;4960826;28;20675;-46
2022/10/02 10:54:33;;;;;;;4.40;2.10;;;17.80;70.50;18.80;100947.00;;;;4958565;28;20809;-45
2022/10/02 10:57:21;;;;;;;4.47;1.90;;;17.80;70.40;18.80;100948.00;;;;4960365;28;20232;-46
2022/10/02 11:00:18;;;;;;;4.63;2.03;;;17.80;70.40;18.80;100938.00;;;;4958735;28;20548;-44
2022/10/02 11:03:41;;;;;;;7.10;2.07;;;17.80;70.50;18.80;100956.00;;;;4954232;28;20273;-45
2022/10/02 11:06:31;;;;;;;3.13;1.97;;;17.80;70.80;18.80;100961.00;;;;4969420;28;20208;-46
2022/10/02 11:09:41;;;;;;;8.37;2.00;;;17.80;70.80;18.80;100967.00;;;;4968637;28;20181;-46
2022/10/02 11:12:43;;;;;;;5.03;2.00;;;17.80;71.10;18.80;100968.00;;;;4969016;28;20283;-45
2022/10/02 11:16:16;;;;;;;7.27;2.10;;;17.80;71.20;18.70;100944.00;;;;4969146;28;20657;-44
2022/10/02 11:19:32;;;;;;;4.73;2.00;;;17.80;70.80;18.70;100961.00;;;;4930973;28;20194;-45
2022/10/02 11:22:36;;;;;;;3.67;2.20;;;17.80;70.60;18.70;100960.00;;;;4971862;28;20807;-45
2022/10/02 11:25:19;;;;;;;6.47;2.23;;;17.80;70.40;18.70;100973.00;;;;4987648;28;20609;-46
2022/10/02 11:28:25;;;;;;;5.00;2.00;;;17.80;70.40;18.80;100977.00;;;;4971499;28;20170;-45
2022/10/02 11:31:10;;;;;;;4.30;1.80;;;17.90;70.40;18.80;100977.00;;;;4971878;28;20204;-45
2022/10/02 11:34:04;;;;;;;8.47;2.03;;;17.90;70.30;18.80;100965.00;;;;4971198;28;20165;-45
2022/10/02 11:36:53;;;;;;;5.73;1.90;;;17.80;70.20;18.80;100985.00;;;;4987390;28;20198;-45
2022/10/02 11:40:01;;;;;;;4.43;1.97;;;17.90;70.20;18.80;100977.00;;;;4964286;28;20180;-45
2022/10/02 11:43:17;;;;;;;7.73;2.10;;;17.90;70.20;18.80;100982.00;;;;4978585;28;20198;-46
2022/10/02 11:46:26;;;;;;;6.17;2.07;;;17.90;70.10;18.80;100995.00;;;;4963625;28;20205;-47
2022/10/02 11:49:30;;;;;;;5.20;1.90;;;17.90;70.00;18.80;100984.00;;;;4961062;28;20179;-46
2022/10/02 11:52:29;;;;;;;5.87;2.00;;;17.90;69.90;18.80;100985.00;;;;4964672;28;20177;-44
2022/10/02 11:55:12;;;;;;;3.07;1.83;;;17.90;69.80;18.80;100986.00;;;;4958106;28;20658;-45
2022/10/02 11:58:03;;;;;;;5.03;2.07;;;17.90;69.90;18.80;100979.00;;;;4969382;28;20756;-45
2022/10/02 12:00:55;;;;;;;4.13;2.03;;;17.90;69.80;18.80;100983.00;;;;4971362;28;20174;-46
2022/10/02 12:03:53;;;;;;;3.33;1.80;;;18.00;70.00;18.90;100990.00;;;;4971188;28;20258;-45
2022/10/02 12:06:48;;;;;;;5.07;2.00;;;17.90;69.80;18.80;100991.00;;;;4949682;28;20695;-45
2022/10/02 12:10:02;;;;;;;2.67;1.80;;;17.90;69.80;18.90;100987.00;;;;4969796;28;20791;-46
2022/10/02 12:12:50;;;;;;;2.37;1.73;;;18.00;69.90;18.90;100989.00;;;;4954033;28;20199;-46
2022/10/02 12:15:43;;;;;;;2.90;1.80;;;18.00;69.90;18.90;100996.00;;;;4971863;28;20202;-46